sensor_id;sensor_type;location;lat;lon;timestamp;pressure;altitude;pressure_sealevel;temperature;humidity
73594;BME280;64760;53.404;23.498;2023-04-15T00:01:43;99285.41;;;9.21;88.09
73594;BME280;64760;53.404;23.498;2023-04-15T00:04:10;99277.56;;;9.20;88.36
73594;BME280;64760;53.404;23.498;2023-04-15T00:06:36;99289.16;;;9.27;88.18
73594;BME280;64760;53.404;23.498;2023-04-15T00:09:04;99281.13;;;9.27;88.96
73594;BME280;64760;53.404;23.498;2023-04-15T00:11:30;99293.06;;;9.31;88.09
73594;BME280;64760;53.404;23.498;2023-04-15T00:13:57;99281.91;;;9.21;89.05
73594;BME280;64760;53.404;23.498;2023-04-15T00:16:24;99287.66;;;9.18;89.21
73594;BME280;64760;53.404;23.498;2023-04-15T00:18:54;99296.28;;;9.20;88.62
73594;BME280;64760;53.404;23.498;2023-04-15T00:21:20;99286.03;;;9.23;88.47
73594;BME280;64760;53.404;23.498;2023-04-15T00:23:47;99290.31;;;9.18;88.85
73594;BME280;64760;53.404;23.498;2023-04-15T00:26:17;99278.63;;;9.19;88.57
73594;BME280;64760;53.404;23.498;2023-04-15T00:28:46;99281.91;;;9.21;88.59
73594;BME280;64760;53.404;23.498;2023-04-15T00:31:13;99280.41;;;9.12;89.26
73594;BME280;64760;53.404;23.498;2023-04-15T00:33:40;99288.66;;;9.10;89.79
73594;BME280;64760;53.404;23.498;2023-04-15T00:36:06;99286.88;;;8.89;90.72
73594;BME280;64760;53.404;23.498;2023-04-15T00:38:34;99284.72;;;9.06;90.44
73594;BME280;64760;53.404;23.498;2023-04-15T00:41:01;99285.53;;;9.07;90.91
73594;BME280;64760;53.404;23.498;2023-04-15T00:43:29;99277.28;;;9.02;91.16
73594;BME280;64760;53.404;23.498;2023-04-15T00:45:57;99283.28;;;9.04;91.13
73594;BME280;64760;53.404;23.498;2023-04-15T00:48:25;99289.63;;;9.03;91.49
73594;BME280;64760;53.404;23.498;2023-04-15T00:50:53;99285.06;;;8.96;92.25
73594;BME280;64760;53.404;23.498;2023-04-15T00:53:19;99286.97;;;9.03;92.62
73594;BME280;64760;53.404;23.498;2023-04-15T00:55:45;99288.44;;;9.12;92.04
73594;BME280;64760;53.404;23.498;2023-04-15T00:58:12;99287.81;;;9.10;92.78
73594;BME280;64760;53.404;23.498;2023-04-15T01:00:41;99287.38;;;9.00;93.66
73594;BME280;64760;53.404;23.498;2023-04-15T01:03:08;99283.66;;;9.01;93.88
73594;BME280;64760;53.404;23.498;2023-04-15T01:05:35;99289.78;;;8.94;94.47
73594;BME280;64760;53.404;23.498;2023-04-15T01:08:02;99283.59;;;8.87;94.93
73594;BME280;64760;53.404;23.498;2023-04-15T01:10:30;99295.09;;;8.88;95.38
73594;BME280;64760;53.404;23.498;2023-04-15T01:12:57;99296.81;;;9.02;94.38
73594;BME280;64760;53.404;23.498;2023-04-15T01:15:25;99289.94;;;8.86;94.99
73594;BME280;64760;53.404;23.498;2023-04-15T01:17:52;99297.41;;;8.98;95.18
73594;BME280;64760;53.404;23.498;2023-04-15T01:20:19;99298.22;;;8.91;96.28
73594;BME280;64760;53.404;23.498;2023-04-15T01:22:46;99292.63;;;8.86;95.96
73594;BME280;64760;53.404;23.498;2023-04-15T01:25:17;99284.53;;;8.80;96.54
73594;BME280;64760;53.404;23.498;2023-04-15T01:27:44;99289.22;;;8.99;95.75
73594;BME280;64760;53.404;23.498;2023-04-15T01:30:13;99286.59;;;8.78;97.27
73594;BME280;64760;53.404;23.498;2023-04-15T01:32:39;99297.38;;;8.91;96.81
73594;BME280;64760;53.404;23.498;2023-04-15T01:35:24;99287.88;;;8.88;97.40
73594;BME280;64760;53.404;23.498;2023-04-15T01:37:52;99283.69;;;8.73;97.91
73594;BME280;64760;53.404;23.498;2023-04-15T01:40:19;99284.78;;;8.85;99.01
73594;BME280;64760;53.404;23.498;2023-04-15T01:42:47;99278.16;;;8.74;99.48
73594;BME280;64760;53.404;23.498;2023-04-15T01:45:15;99284.66;;;8.65;100.00
73594;BME280;64760;53.404;23.498;2023-04-15T01:47:44;99281.88;;;8.80;99.49
73594;BME280;64760;53.404;23.498;2023-04-15T01:50:14;99282.84;;;8.72;99.52
73594;BME280;64760;53.404;23.498;2023-04-15T01:52:42;99282.53;;;8.82;98.85
73594;BME280;64760;53.404;23.498;2023-04-15T01:55:12;99287.41;;;8.72;100.00
73594;BME280;64760;53.404;23.498;2023-04-15T01:57:39;99287.00;;;8.75;99.90
73594;BME280;64760;53.404;23.498;2023-04-15T02:00:08;99277.47;;;8.66;100.00
73594;BME280;64760;53.404;23.498;2023-04-15T02:02:43;99277.88;;;8.63;100.00
73594;BME280;64760;53.404;23.498;2023-04-15T02:05:10;99285.22;;;8.54;100.00
73594;BME280;64760;53.404;23.498;2023-04-15T02:07:38;99286.47;;;8.58;100.00
73594;BME280;64760;53.404;23.498;2023-04-15T02:10:06;99279.88;;;8.54;100.00
73594;BME280;64760;53.404;23.498;2023-04-15T02:12:36;99282.28;;;8.49;100.00
73594;BME280;64760;53.404;23.498;2023-04-15T02:15:04;99274.94;;;8.58;100.00
73594;BME280;64760;53.404;23.498;2023-04-15T02:17:36;99287.22;;;8.52;100.00
73594;BME280;64760;53.404;23.498;2023-04-15T02:20:03;99277.66;;;8.64;100.00
73594;BME280;64760;53.404;23.498;2023-04-15T02:22:37;99289.03;;;8.45;100.00
73594;BME280;64760;53.404;23.498;2023-04-15T02:25:05;99273.25;;;8.50;100.00
73594;BME280;64760;53.404;23.498;2023-04-15T02:27:35;99280.16;;;8.38;100.00
73594;BME280;64760;53.404;23.498;2023-04-15T02:30:04;99282.66;;;8.39;100.00
73594;BME280;64760;53.404;23.498;2023-04-15T02:32:35;99284.34;;;8.47;100.00
73594;BME280;64760;53.404;23.498;2023-04-15T02:35:05;99284.78;;;8.51;100.00
73594;BME280;64760;53.404;23.498;2023-04-15T02:37:35;99286.38;;;8.45;100.00
73594;BME280;64760;53.404;23.498;2023-04-15T02:40:09;99289.91;;;8.52;100.00
73594;BME280;64760;53.404;23.498;2023-04-15T02:42:53;99287.63;;;8.49;100.00
73594;BME280;64760;53.404;23.498;2023-04-15T02:49:12;99289.28;;;8.50;100.00
73594;BME280;64760;53.404;23.498;2023-04-15T02:51:39;99280.94;;;8.32;100.00
73594;BME280;64760;53.404;23.498;2023-04-15T02:54:08;99295.38;;;8.44;100.00
73594;BME280;64760;53.404;23.498;2023-04-15T02:56:36;99286.75;;;8.42;100.00
73594;BME280;64760;53.404;23.498;2023-04-15T02:59:03;99295.59;;;8.42;100.00
73594;BME280;64760;53.404;23.498;2023-04-15T03:01:31;99285.50;;;8.38;100.00
73594;BME280;64760;53.404;23.498;2023-04-15T03:03:59;99291.09;;;8.43;99.80
73594;BME280;64760;53.404;23.498;2023-04-15T03:06:27;99292.22;;;8.55;99.45
73594;BME280;64760;53.404;23.498;2023-04-15T03:08:55;99298.06;;;8.44;100.00
73594;BME280;64760;53.404;23.498;2023-04-15T03:11:24;99284.69;;;8.44;100.00
73594;BME280;64760;53.404;23.498;2023-04-15T03:13:53;99286.28;;;8.32;100.00
73594;BME280;64760;53.404;23.498;2023-04-15T03:16:30;99290.84;;;8.38;100.00
73594;BME280;64760;53.404;23.498;2023-04-15T03:18:59;99296.63;;;8.41;100.00
73594;BME280;64760;53.404;23.498;2023-04-15T03:21:27;99295.56;;;8.36;100.00
73594;BME280;64760;53.404;23.498;2023-04-15T03:23:55;99298.06;;;8.44;100.00
73594;BME280;64760;53.404;23.498;2023-04-15T03:26:28;99290.69;;;8.25;100.00
73594;BME280;64760;53.404;23.498;2023-04-15T03:29:00;99300.94;;;8.21;100.00
73594;BME280;64760;53.404;23.498;2023-04-15T03:31:28;99301.91;;;8.35;100.00
73594;BME280;64760;53.404;23.498;2023-04-15T03:33:56;99286.50;;;8.37;100.00
73594;BME280;64760;53.404;23.498;2023-04-15T03:36:24;99291.22;;;8.35;100.00
73594;BME280;64760;53.404;23.498;2023-04-15T03:38:52;99296.03;;;8.25;100.00
73594;BME280;64760;53.404;23.498;2023-04-15T03:41:20;99297.00;;;8.38;100.00
73594;BME280;64760;53.404;23.498;2023-04-15T03:43:50;99297.50;;;8.27;100.00
73594;BME280;64760;53.404;23.498;2023-04-15T03:46:20;99293.16;;;8.26;100.00
73594;BME280;64760;53.404;23.498;2023-04-15T03:48:48;99304.88;;;8.25;100.00
73594;BME280;64760;53.404;23.498;2023-04-15T03:51:15;99301.25;;;8.33;100.00
73594;BME280;64760;53.404;23.498;2023-04-15T03:53:43;99295.59;;;8.42;100.00
73594;BME280;64760;53.404;23.498;2023-04-15T03:56:11;99297.50;;;8.27;100.00
73594;BME280;64760;53.404;23.498;2023-04-15T03:58:38;99302.59;;;8.22;100.00
73594;BME280;64760;53.404;23.498;2023-04-15T04:01:06;99290.13;;;8.29;100.00
73594;BME280;64760;53.404;23.498;2023-04-15T04:03:35;99296.31;;;8.30;100.00
73594;BME280;64760;53.404;23.498;2023-04-15T04:06:04;99307.69;;;8.38;100.00
73594;BME280;64760;53.404;23.498;2023-04-15T04:08:32;99302.66;;;8.29;100.00
73594;BME280;64760;53.404;23.498;2023-04-15T04:11:00;99299.69;;;8.38;100.00
73594;BME280;64760;53.404;23.498;2023-04-15T04:13:28;99307.66;;;8.32;100.00
73594;BME280;64760;53.404;23.498;2023-04-15T04:15:56;99307.09;;;8.22;100.00
73594;BME280;64760;53.404;23.498;2023-04-15T04:18:25;99295.34;;;8.37;100.00
73594;BME280;64760;53.404;23.498;2023-04-15T04:20:53;99311.81;;;8.41;100.00
73594;BME280;64760;53.404;23.498;2023-04-15T04:23:21;99308.44;;;8.32;100.00
73594;BME280;64760;53.404;23.498;2023-04-15T04:25:49;99309.66;;;8.30;100.00
73594;BME280;64760;53.404;23.498;2023-04-15T04:28:17;99311.75;;;8.34;100.00
73594;BME280;64760;53.404;23.498;2023-04-15T04:30:44;99305.31;;;8.50;100.00
73594;BME280;64760;53.404;23.498;2023-04-15T04:33:12;99308.38;;;8.26;100.00
73594;BME280;64760;53.404;23.498;2023-04-15T04:35:39;99317.16;;;8.41;100.00
73594;BME280;64760;53.404;23.498;2023-04-15T04:38:08;99310.22;;;8.46;100.00
73594;BME280;64760;53.404;23.498;2023-04-15T04:40:35;99314.69;;;8.39;100.00
73594;BME280;64760;53.404;23.498;2023-04-15T04:43:03;99309.66;;;8.51;100.00
73594;BME280;64760;53.404;23.498;2023-04-15T04:45:31;99323.31;;;8.41;100.00
73594;BME280;64760;53.404;23.498;2023-04-15T04:47:58;99314.72;;;8.46;100.00
73594;BME280;64760;53.404;23.498;2023-04-15T04:50:26;99311.41;;;8.44;100.00
73594;BME280;64760;53.404;23.498;2023-04-15T04:52:58;99312.34;;;8.58;100.00
73594;BME280;64760;53.404;23.498;2023-04-15T04:55:25;99312.69;;;8.48;100.00
73594;BME280;64760;53.404;23.498;2023-04-15T04:57:53;99322.66;;;8.61;100.00
73594;BME280;64760;53.404;23.498;2023-04-15T05:00:21;99315.16;;;8.49;100.00
73594;BME280;64760;53.404;23.498;2023-04-15T05:02:49;99310.94;;;8.62;100.00
73594;BME280;64760;53.404;23.498;2023-04-15T05:05:17;99316.63;;;8.52;100.00
73594;BME280;64760;53.404;23.498;2023-04-15T05:07:45;99322.16;;;8.51;100.00
73594;BME280;64760;53.404;23.498;2023-04-15T05:10:15;99323.75;;;8.45;100.00
73594;BME280;64760;53.404;23.498;2023-04-15T05:12:44;99316.19;;;8.48;100.00
73594;BME280;64760;53.404;23.498;2023-04-15T05:15:12;99313.19;;;8.58;100.00
73594;BME280;64760;53.404;23.498;2023-04-15T05:17:40;99318.72;;;8.57;100.00
73594;BME280;64760;53.404;23.498;2023-04-15T05:20:07;99327.41;;;8.65;100.00
73594;BME280;64760;53.404;23.498;2023-04-15T05:22:36;99331.56;;;8.68;100.00
73594;BME280;64760;53.404;23.498;2023-04-15T05:25:04;99327.22;;;8.67;100.00
73594;BME280;64760;53.404;23.498;2023-04-15T05:27:31;99324.13;;;8.63;100.00
73594;BME280;64760;53.404;23.498;2023-04-15T05:30:00;99318.28;;;8.53;100.00
73594;BME280;64760;53.404;23.498;2023-04-15T05:32:28;99328.41;;;8.64;100.00
73594;BME280;64760;53.404;23.498;2023-04-15T05:34:55;99332.91;;;8.57;100.00
73594;BME280;64760;53.404;23.498;2023-04-15T05:37:23;99325.25;;;8.75;100.00
73594;BME280;64760;53.404;23.498;2023-04-15T05:39:51;99328.94;;;8.74;99.66
73594;BME280;64760;53.404;23.498;2023-04-15T05:42:19;99331.94;;;8.65;99.80
73594;BME280;64760;53.404;23.498;2023-04-15T05:44:46;99333.63;;;8.72;99.51
73594;BME280;64760;53.404;23.498;2023-04-15T05:47:14;99328.38;;;8.58;99.52
73594;BME280;64760;53.404;23.498;2023-04-15T05:56:40;99331.06;;;8.85;99.30
73594;BME280;64760;53.404;23.498;2023-04-15T05:59:07;99320.19;;;8.87;98.19
73594;BME280;64760;53.404;23.498;2023-04-15T06:01:36;99323.13;;;8.99;98.10
73594;BME280;64760;53.404;23.498;2023-04-15T06:04:08;99318.25;;;9.09;97.24
73594;BME280;64760;53.404;23.498;2023-04-15T06:06:35;99324.09;;;9.25;95.69
73594;BME280;64760;53.404;23.498;2023-04-15T06:09:27;99328.34;;;9.13;96.58
73594;BME280;64760;53.404;23.498;2023-04-15T06:11:55;99322.66;;;9.23;94.96
73594;BME280;64760;53.404;23.498;2023-04-15T06:14:29;99331.09;;;9.26;95.16
73594;BME280;64760;53.404;23.498;2023-04-15T06:16:58;99328.03;;;9.29;94.14
73594;BME280;64760;53.404;23.498;2023-04-15T06:19:26;99321.84;;;9.29;94.79
73594;BME280;64760;53.404;23.498;2023-04-15T06:24:41;99327.84;;;9.31;94.17
73594;BME280;64760;53.404;23.498;2023-04-15T06:27:08;99319.44;;;9.40;93.99
73594;BME280;64760;53.404;23.498;2023-04-15T06:29:41;99310.16;;;9.36;93.45
73594;BME280;64760;53.404;23.498;2023-04-15T06:32:08;99318.44;;;9.48;93.67
73594;BME280;64760;53.404;23.498;2023-04-15T06:34:37;99316.84;;;9.60;92.20
73594;BME280;64760;53.404;23.498;2023-04-15T06:37:05;99320.41;;;9.80;91.48
73594;BME280;64760;53.404;23.498;2023-04-15T06:39:33;99303.88;;;9.64;91.34
73594;BME280;64760;53.404;23.498;2023-04-15T06:42:01;99321.69;;;9.91;90.65
73594;BME280;64760;53.404;23.498;2023-04-15T06:44:30;99322.00;;;9.68;91.02
73594;BME280;64760;53.404;23.498;2023-04-15T06:46:57;99332.78;;;9.88;90.38
73594;BME280;64760;53.404;23.498;2023-04-15T06:49:25;99316.47;;;9.70;90.47
73594;BME280;64760;53.404;23.498;2023-04-15T06:51:53;99323.84;;;9.61;91.55
73594;BME280;64760;53.404;23.498;2023-04-15T06:54:21;99330.97;;;9.41;92.00
73594;BME280;64760;53.404;23.498;2023-04-15T06:56:48;99327.78;;;9.65;91.89
73594;BME280;64760;53.404;23.498;2023-04-15T06:59:16;99332.69;;;9.55;91.28
73594;BME280;64760;53.404;23.498;2023-04-15T07:01:44;99334.13;;;9.58;91.07
73594;BME280;64760;53.404;23.498;2023-04-15T07:04:12;99340.16;;;9.73;91.13
73594;BME280;64760;53.404;23.498;2023-04-15T07:06:39;99341.09;;;9.52;91.45
73594;BME280;64760;53.404;23.498;2023-04-15T07:09:08;99345.50;;;9.32;92.75
73594;BME280;64760;53.404;23.498;2023-04-15T07:11:35;99355.63;;;9.36;92.12
73594;BME280;64760;53.404;23.498;2023-04-15T07:14:03;99347.31;;;9.59;91.16
73594;BME280;64760;53.404;23.498;2023-04-15T07:16:31;99350.69;;;9.40;92.56
73594;BME280;64760;53.404;23.498;2023-04-15T07:18:59;99347.25;;;9.46;91.39
73594;BME280;64760;53.404;23.498;2023-04-15T07:21:26;99348.94;;;9.54;91.70
73594;BME280;64760;53.404;23.498;2023-04-15T07:23:54;99351.75;;;9.39;92.07
73594;BME280;64760;53.404;23.498;2023-04-15T07:26:21;99353.63;;;9.52;91.81
73594;BME280;64760;53.404;23.498;2023-04-15T07:28:49;99357.72;;;9.48;91.09
73594;BME280;64760;53.404;23.498;2023-04-15T07:31:17;99352.88;;;9.64;91.34
73594;BME280;64760;53.404;23.498;2023-04-15T07:33:45;99356.13;;;9.53;90.94
73594;BME280;64760;53.404;23.498;2023-04-15T07:36:13;99358.63;;;9.61;90.62
73594;BME280;64760;53.404;23.498;2023-04-15T07:38:41;99369.09;;;9.56;89.88
73594;BME280;64760;53.404;23.498;2023-04-15T07:41:09;99363.56;;;9.58;89.95
73594;BME280;64760;53.404;23.498;2023-04-15T07:43:37;99363.38;;;9.59;89.58
73594;BME280;64760;53.404;23.498;2023-04-15T07:46:05;99359.81;;;9.52;89.34
73594;BME280;64760;53.404;23.498;2023-04-15T07:48:33;99361.47;;;9.53;90.47
73594;BME280;64760;53.404;23.498;2023-04-15T07:51:00;99370.22;;;9.34;89.67
73594;BME280;64760;53.404;23.498;2023-04-15T07:53:30;99369.66;;;9.38;90.32
73594;BME280;64760;53.404;23.498;2023-04-15T07:55:57;99370.91;;;9.49;89.53
73594;BME280;64760;53.404;23.498;2023-04-15T07:58:25;99356.84;;;9.27;90.94
73594;BME280;64760;53.404;23.498;2023-04-15T08:00:59;99365.34;;;9.44;89.82
73594;BME280;64760;53.404;23.498;2023-04-15T08:03:27;99367.91;;;9.59;89.03
73594;BME280;64760;53.404;23.498;2023-04-15T08:05:54;99361.22;;;9.41;89.65
73594;BME280;64760;53.404;23.498;2023-04-15T08:08:22;99368.09;;;9.57;89.50
73594;BME280;64760;53.404;23.498;2023-04-15T08:10:50;99372.16;;;9.47;89.81
73594;BME280;64760;53.404;23.498;2023-04-15T08:13:18;99376.69;;;9.46;89.93
73594;BME280;64760;53.404;23.498;2023-04-15T08:16:12;99381.69;;;9.62;89.22
73594;BME280;64760;53.404;23.498;2023-04-15T08:18:40;99371.41;;;9.59;87.91
73594;BME280;64760;53.404;23.498;2023-04-15T08:21:09;99366.59;;;9.48;86.13
73594;BME280;64760;53.404;23.498;2023-04-15T08:23:37;99372.25;;;9.66;86.14
73594;BME280;64760;53.404;23.498;2023-04-15T08:26:05;99364.03;;;9.74;85.48
73594;BME280;64760;53.404;23.498;2023-04-15T08:28:34;99369.59;;;9.73;85.87
73594;BME280;64760;53.404;23.498;2023-04-15T08:31:02;99376.19;;;9.83;84.89
73594;BME280;64760;53.404;23.498;2023-04-15T08:33:30;99380.88;;;9.68;85.89
73594;BME280;64760;53.404;23.498;2023-04-15T08:35:57;99372.56;;;9.50;86.80
73594;BME280;64760;53.404;23.498;2023-04-15T08:38:25;99381.72;;;9.69;84.81
73594;BME280;64760;53.404;23.498;2023-04-15T08:40:52;99378.00;;;9.63;84.58
73594;BME280;64760;53.404;23.498;2023-04-15T08:43:22;99372.28;;;9.79;84.18
73594;BME280;64760;53.404;23.498;2023-04-15T08:45:53;99374.50;;;9.69;84.05
73594;BME280;64760;53.404;23.498;2023-04-15T08:48:22;99376.59;;;9.80;82.02
73594;BME280;64760;53.404;23.498;2023-04-15T08:50:50;99372.09;;;9.81;82.44
73594;BME280;64760;53.404;23.498;2023-04-15T08:53:18;99380.94;;;9.75;82.63
73594;BME280;64760;53.404;23.498;2023-04-15T09:02:36;99381.78;;;9.88;81.68
73594;BME280;64760;53.404;23.498;2023-04-15T09:05:08;99389.88;;;10.08;80.15
73594;BME280;64760;53.404;23.498;2023-04-15T09:07:38;99390.09;;;10.07;79.59
73594;BME280;64760;53.404;23.498;2023-04-15T09:10:07;99390.28;;;10.05;79.00
73594;BME280;64760;53.404;23.498;2023-04-15T09:12:35;99385.13;;;9.97;79.04
73594;BME280;64760;53.404;23.498;2023-04-15T09:15:03;99392.56;;;10.08;78.48
73594;BME280;64760;53.404;23.498;2023-04-15T09:17:32;99389.22;;;10.00;79.40
73594;BME280;64760;53.404;23.498;2023-04-15T09:22:36;99386.56;;;10.00;77.97
73594;BME280;64760;53.404;23.498;2023-04-15T09:27:51;99388.31;;;10.20;76.86
73594;BME280;64760;53.404;23.498;2023-04-15T09:30:20;99390.97;;;10.20;76.92
73594;BME280;64760;53.404;23.498;2023-04-15T09:32:54;99382.50;;;10.10;77.08
73594;BME280;64760;53.404;23.498;2023-04-15T09:35:24;99394.22;;;10.09;76.97
73594;BME280;64760;53.404;23.498;2023-04-15T09:37:53;99391.59;;;10.16;77.12
73594;BME280;64760;53.404;23.498;2023-04-15T09:40:39;99390.72;;;10.09;77.17
73594;BME280;64760;53.404;23.498;2023-04-15T09:43:08;99395.50;;;10.20;76.49
73594;BME280;64760;53.404;23.498;2023-04-15T09:45:37;99388.94;;;10.29;76.10
73594;BME280;64760;53.404;23.498;2023-04-15T09:48:34;99404.59;;;10.19;76.25
73594;BME280;64760;53.404;23.498;2023-04-15T09:51:02;99396.72;;;10.11;76.43
73594;BME280;64760;53.404;23.498;2023-04-15T09:53:32;99392.56;;;10.02;76.25
73594;BME280;64760;53.404;23.498;2023-04-15T09:56:01;99399.06;;;10.27;74.91
73594;BME280;64760;53.404;23.498;2023-04-15T09:58:30;99411.25;;;10.43;74.64
73594;BME280;64760;53.404;23.498;2023-04-15T10:01:03;99399.25;;;10.32;75.68
73594;BME280;64760;53.404;23.498;2023-04-15T10:03:33;99405.03;;;10.35;75.84
73594;BME280;64760;53.404;23.498;2023-04-15T10:06:02;99414.06;;;10.28;75.51
73594;BME280;64760;53.404;23.498;2023-04-15T10:08:33;99409.13;;;10.25;75.12
73594;BME280;64760;53.404;23.498;2023-04-15T10:11:02;99406.81;;;10.15;75.64
73594;BME280;64760;53.404;23.498;2023-04-15T10:13:30;99401.00;;;10.12;75.80
73594;BME280;64760;53.404;23.498;2023-04-15T10:16:12;99401.59;;;10.01;76.35
73594;BME280;64760;53.404;23.498;2023-04-15T10:18:44;99406.63;;;10.17;75.78
73594;BME280;64760;53.404;23.498;2023-04-15T10:21:13;99409.59;;;10.35;76.08
73594;BME280;64760;53.404;23.498;2023-04-15T10:23:45;99409.13;;;10.18;76.37
73594;BME280;64760;53.404;23.498;2023-04-15T10:26:14;99417.09;;;10.12;76.72
73594;BME280;64760;53.404;23.498;2023-04-15T10:28:43;99412.00;;;10.23;76.81
73594;BME280;64760;53.404;23.498;2023-04-15T10:31:11;99403.69;;;10.12;77.63
73594;BME280;64760;53.404;23.498;2023-04-15T10:33:43;99416.75;;;10.21;78.71
73594;BME280;64760;53.404;23.498;2023-04-15T10:36:11;99414.22;;;10.13;79.54
73594;BME280;64760;53.404;23.498;2023-04-15T10:41:22;99428.06;;;10.17;80.64
73594;BME280;64760;53.404;23.498;2023-04-15T10:44:03;99417.25;;;10.04;81.56
73594;BME280;64760;53.404;23.498;2023-04-15T10:46:42;99419.00;;;10.18;82.67
73594;BME280;64760;53.404;23.498;2023-04-15T10:49:14;99427.69;;;10.40;82.04
73594;BME280;64760;53.404;23.498;2023-04-15T10:51:48;99430.59;;;10.38;84.89
73594;BME280;64760;53.404;23.498;2023-04-15T10:57:06;99427.66;;;10.20;85.69
73594;BME280;64760;53.404;23.498;2023-04-15T11:02:39;99423.94;;;10.21;86.42
73594;BME280;64760;53.404;23.498;2023-04-15T11:05:07;99433.00;;;10.20;87.81
73594;BME280;64760;53.404;23.498;2023-04-15T11:13:14;99426.53;;;9.95;87.93
73594;BME280;64760;53.404;23.498;2023-04-15T11:15:48;99433.97;;;9.99;89.19
73594;BME280;64760;53.404;23.498;2023-04-15T11:18:27;99438.84;;;9.96;87.79
73594;BME280;64760;53.404;23.498;2023-04-15T11:20:59;99431.69;;;9.55;88.76
73594;BME280;64760;53.404;23.498;2023-04-15T11:23:36;99437.09;;;9.68;89.18
73594;BME280;64760;53.404;23.498;2023-04-15T11:26:06;99438.91;;;9.61;86.98
73594;BME280;64760;53.404;23.498;2023-04-15T11:28:42;99433.78;;;9.66;86.73
73594;BME280;64760;53.404;23.498;2023-04-15T11:31:13;99439.00;;;9.74;85.48
73594;BME280;64760;53.404;23.498;2023-04-15T11:36:25;99426.78;;;9.65;83.68
73594;BME280;64760;53.404;23.498;2023-04-15T11:38:57;99425.72;;;9.60;82.09
73594;BME280;64760;53.404;23.498;2023-04-15T11:41:25;99429.03;;;9.62;81.77
73594;BME280;64760;53.404;23.498;2023-04-15T11:43:52;99428.38;;;9.60;81.06
73594;BME280;64760;53.404;23.498;2023-04-15T11:46:20;99433.16;;;9.64;81.65
73594;BME280;64760;53.404;23.498;2023-04-15T11:48:49;99431.28;;;9.58;81.26
73594;BME280;64760;53.404;23.498;2023-04-15T11:51:16;99440.56;;;9.62;80.89
73594;BME280;64760;53.404;23.498;2023-04-15T11:53:49;99443.50;;;9.74;80.21
73594;BME280;64760;53.404;23.498;2023-04-15T11:56:21;99447.00;;;9.74;81.35
73594;BME280;64760;53.404;23.498;2023-04-15T11:58:56;99443.03;;;9.64;81.39
73594;BME280;64760;53.404;23.498;2023-04-15T12:01:37;99450.00;;;9.58;80.02
73594;BME280;64760;53.404;23.498;2023-04-15T12:04:15;99454.03;;;9.48;87.23
73594;BME280;64760;53.404;23.498;2023-04-15T12:06:44;99463.75;;;9.21;88.98
73594;BME280;64760;53.404;23.498;2023-04-15T12:09:12;99457.03;;;9.04;91.10
73594;BME280;64760;53.404;23.498;2023-04-15T12:11:49;99455.25;;;8.89;92.10
73594;BME280;64760;53.404;23.498;2023-04-15T12:16:53;99461.03;;;8.93;94.03
73594;BME280;64760;53.404;23.498;2023-04-15T12:22:15;99466.75;;;8.83;94.67
73594;BME280;64760;53.404;23.498;2023-04-15T12:24:43;99470.81;;;8.79;94.88
73594;BME280;64760;53.404;23.498;2023-04-15T12:27:15;99471.06;;;8.63;95.10
73594;BME280;64760;53.404;23.498;2023-04-15T12:29:42;99468.63;;;8.68;95.58
73594;BME280;64760;53.404;23.498;2023-04-15T12:32:14;99460.69;;;8.54;95.97
73594;BME280;64760;53.404;23.498;2023-04-15T12:34:48;99466.41;;;8.51;95.86
73594;BME280;64760;53.404;23.498;2023-04-15T12:37:21;99465.19;;;8.74;95.53
73594;BME280;64760;53.404;23.498;2023-04-15T12:39:48;99476.72;;;8.75;95.24
73594;BME280;64760;53.404;23.498;2023-04-15T12:42:16;99468.38;;;8.84;93.16
73594;BME280;64760;53.404;23.498;2023-04-15T12:44:43;99476.03;;;8.66;94.40
73594;BME280;64760;53.404;23.498;2023-04-15T12:47:10;99473.22;;;8.74;94.56
73594;BME280;64760;53.404;23.498;2023-04-15T12:49:39;99474.69;;;8.77;95.43
73594;BME280;64760;53.404;23.498;2023-04-15T12:52:06;99466.59;;;8.70;95.35
73594;BME280;64760;53.404;23.498;2023-04-15T12:54:34;99462.34;;;8.55;95.26
73594;BME280;64760;53.404;23.498;2023-04-15T12:57:01;99465.97;;;8.47;96.06
73594;BME280;64760;53.404;23.498;2023-04-15T12:59:28;99465.38;;;8.73;94.20
73594;BME280;64760;53.404;23.498;2023-04-15T13:01:54;99469.59;;;8.82;93.76
73594;BME280;64760;53.404;23.498;2023-04-15T13:04:21;99468.00;;;8.66;92.03
73594;BME280;64760;53.404;23.498;2023-04-15T13:06:48;99467.50;;;8.77;91.88
73594;BME280;64760;53.404;23.498;2023-04-15T13:09:16;99470.16;;;8.77;91.57
73594;BME280;64760;53.404;23.498;2023-04-15T13:11:43;99466.75;;;8.83;91.32
73594;BME280;64760;53.404;23.498;2023-04-15T13:14:12;99475.06;;;8.74;91.55
73594;BME280;64760;53.404;23.498;2023-04-15T13:16:39;99468.31;;;8.78;90.94
73594;BME280;64760;53.404;23.498;2023-04-15T13:19:08;99468.72;;;8.75;91.06
73594;BME280;64760;53.404;23.498;2023-04-15T13:21:35;99476.03;;;8.66;91.45
73594;BME280;64760;53.404;23.498;2023-04-15T13:24:03;99475.00;;;8.67;92.31
73594;BME280;64760;53.404;23.498;2023-04-15T13:26:37;99479.53;;;8.67;92.52
73594;BME280;64760;53.404;23.498;2023-04-15T13:29:07;99476.91;;;8.73;89.68
73594;BME280;64760;53.404;23.498;2023-04-15T13:31:35;99478.81;;;8.58;90.97
73594;BME280;64760;53.404;23.498;2023-04-15T13:34:07;99486.88;;;8.65;89.40
73594;BME280;64760;53.404;23.498;2023-04-15T13:36:35;99486.38;;;8.76;88.55
73594;BME280;64760;53.404;23.498;2023-04-15T13:39:06;99487.66;;;8.80;87.94
73594;BME280;64760;53.404;23.498;2023-04-15T13:41:33;99495.53;;;8.88;87.56
73594;BME280;64760;53.404;23.498;2023-04-15T13:44:01;99486.63;;;8.81;87.71
73594;BME280;64760;53.404;23.498;2023-04-15T13:46:27;99495.94;;;8.85;88.32
73594;BME280;64760;53.404;23.498;2023-04-15T13:48:54;99494.16;;;8.71;87.65
73594;BME280;64760;53.404;23.498;2023-04-15T13:51:20;99495.00;;;8.71;88.64
73594;BME280;64760;53.404;23.498;2023-04-15T13:53:48;99494.06;;;8.64;88.89